createdAt,value
2022-12-28T00:01:24.706Z,99034.25
2022-12-28T00:03:53.972Z,99030.50
2022-12-28T00:06:24.917Z,99018.13
2022-12-28T00:08:54.753Z,99018.63
2022-12-28T00:11:26.575Z,99011.66
2022-12-28T00:14:00.094Z,99003.03
2022-12-28T00:16:29.768Z,98997.41
2022-12-28T00:18:58.853Z,98994.75
2022-12-28T00:21:28.671Z,98993.88
2022-12-28T00:23:58.607Z,98993.38
2022-12-28T00:26:27.692Z,98993.34
2022-12-28T00:28:59.859Z,98991.72
2022-12-28T00:31:32.097Z,98993.34
2022-12-28T00:33:59.984Z,98975.59
2022-12-28T00:37:10.212Z,98983.16
2022-12-28T00:39:17.100Z,98982.09
2022-12-28T00:41:44.871Z,98980.97
2022-12-28T00:44:12.638Z,98983.16
2022-12-28T00:46:40.387Z,98985.31
2022-12-28T00:49:08.230Z,98985.31
2022-12-28T00:51:37.345Z,98988.81
2022-12-28T00:54:05.426Z,98985.91
2022-12-28T00:56:33.148Z,98984.00
2022-12-28T00:59:01.587Z,98982.63
2022-12-28T01:01:30.327Z,98988.56
2022-12-28T01:03:59.026Z,98987.19
2022-12-28T01:06:28.388Z,98984.78
2022-12-28T01:08:57.494Z,98990.94
2022-12-28T01:11:27.249Z,98990.13
2022-12-28T01:13:56.483Z,98984.22
2022-12-28T01:16:26.113Z,98992.00
2022-12-28T01:18:56.272Z,98986.38
2022-12-28T01:21:27.204Z,98987.41
2022-12-28T01:23:57.779Z,98982.56
2022-12-28T01:26:25.923Z,98976.13
2022-12-28T01:28:53.695Z,98968.06
2022-12-28T01:31:22.968Z,98968.59
2022-12-28T01:33:51.028Z,98959.19
2022-12-28T01:36:20.747Z,98959.19
2022-12-28T01:38:49.973Z,98952.47
2022-12-28T01:41:20.381Z,98947.34
2022-12-28T01:44:10.303Z,98946.31
2022-12-28T01:46:40.965Z,98938.00
2022-12-28T01:49:13.137Z,98935.81
2022-12-28T01:51:48.952Z,98926.16
2022-12-28T01:54:17.883Z,98918.34
2022-12-28T01:56:48.540Z,98915.41
2022-12-28T01:59:18.574Z,98901.38
2022-12-28T02:01:46.752Z,98902.50
2022-12-28T02:04:14.627Z,98897.63
2022-12-28T02:06:42.456Z,98904.13
2022-12-28T02:09:15.439Z,98895.25
2022-12-28T02:11:43.193Z,98894.16
2022-12-28T02:14:14.791Z,98885.81
2022-12-28T02:16:43.838Z,98892.00
2022-12-28T02:19:19.196Z,98885.28
2022-12-28T02:21:56.422Z,98882.59
2022-12-28T02:24:45.861Z,98871.81
2022-12-28T02:27:24.808Z,98872.88
2022-12-28T02:30:04.019Z,98875.06
2022-12-28T02:32:46.435Z,98870.19
2022-12-28T02:35:22.785Z,98868.06
2022-12-28T02:37:55.832Z,98856.75
2022-12-28T02:40:27.608Z,98862.13
2022-12-28T02:42:56.220Z,98859.44
2022-12-28T02:45:51.382Z,98853.53
2022-12-28T02:48:36.653Z,98840.06
2022-12-28T02:51:21.614Z,98833.38
2022-12-28T02:54:08.618Z,98827.19
2022-12-28T02:56:44.957Z,98825.00
2022-12-28T02:59:44.936Z,98820.19
2022-12-28T03:02:35.230Z,98821.78
2022-12-28T03:05:12.921Z,98821.25
2022-12-28T03:08:09.314Z,98813.72
2022-12-28T03:10:45.756Z,98802.94
2022-12-28T03:13:37.387Z,98806.19
2022-12-28T03:16:09.157Z,98791.91
2022-12-28T03:18:58.789Z,98791.13
2022-12-28T03:21:46.642Z,98784.66
2022-12-28T03:24:35.434Z,98779.81
2022-12-28T03:27:24.730Z,98790.03
2022-12-28T03:30:18.161Z,98787.88
2022-12-28T03:32:47.222Z,98776.56
2022-12-28T03:35:17.587Z,98765.81
2022-12-28T03:37:51.405Z,98766.91
2022-12-28T03:40:28.488Z,98773.88
2022-12-28T03:43:18.102Z,98762.03
2022-12-28T03:45:53.035Z,98753.97
2022-12-28T03:48:21.061Z,98753.97
2022-12-28T03:50:52.014Z,98763.63
2022-12-28T03:53:25.330Z,98761.50
2022-12-28T03:55:53.076Z,98763.16
2022-12-28T03:58:22.481Z,98760.41
2022-12-28T04:00:50.215Z,98755.56
2022-12-28T04:03:18.016Z,98751.81
2022-12-28T04:05:45.731Z,98747.00
2022-12-28T04:08:14.796Z,98745.34
2022-12-28T04:10:42.487Z,98742.13
2022-12-28T04:13:10.192Z,98734.84
2022-12-28T04:15:39.312Z,98734.06
2022-12-28T04:18:07.079Z,98719.03
2022-12-28T04:20:35.396Z,98709.34
2022-12-28T04:23:03.114Z,98711.19
2022-12-28T04:25:32.164Z,98709.84
2022-12-28T04:27:59.818Z,98706.91
2022-12-28T04:30:27.533Z,98721.19
2022-12-28T04:32:56.598Z,98715.25
2022-12-28T04:35:24.294Z,98708.22
2022-12-28T04:37:52.019Z,98713.06
2022-12-28T04:40:19.711Z,98717.38
2022-12-28T04:42:48.956Z,98722.22
2022-12-28T04:45:21.720Z,98719.78
2022-12-28T04:47:49.976Z,98719.47
2022-12-28T04:50:17.702Z,98709.03
2022-12-28T04:52:45.316Z,98713.53
2022-12-28T04:55:32.072Z,98718.38
2022-12-28T04:58:02.369Z,98707.06
2022-12-28T05:00:30.189Z,98715.09
2022-12-28T05:02:59.759Z,98710.84
2022-12-28T05:05:28.466Z,98705.94
2022-12-28T05:07:56.193Z,98716.72
2022-12-28T05:10:23.846Z,98698.41
2022-12-28T05:12:51.547Z,98697.34
2022-12-28T05:15:20.639Z,98706.47
2022-12-28T05:17:48.443Z,98701.09
2022-12-28T05:20:18.041Z,98701.63
2022-12-28T05:22:45.777Z,98703.75
2022-12-28T05:25:13.468Z,98696.50
2022-12-28T05:27:41.234Z,98697.22
2022-12-28T05:30:10.123Z,98689.16
2022-12-28T05:32:39.253Z,98685.91
2022-12-28T05:35:07.995Z,98684.78
2022-12-28T05:37:35.658Z,98680.97
2022-12-28T05:40:03.740Z,98670.28
2022-12-28T05:42:31.497Z,98672.09
2022-12-28T05:44:59.280Z,98679.31
2022-12-28T05:47:27.254Z,98679.81
2022-12-28T05:49:56.299Z,98665.88
2022-12-28T05:52:24.009Z,98674.94
2022-12-28T05:54:51.750Z,98673.94
2022-12-28T05:57:19.449Z,98675.47
2022-12-28T05:59:47.099Z,98664.94
2022-12-28T06:02:17.094Z,98670.59
2022-12-28T06:04:46.818Z,98668.34
2022-12-28T06:07:16.106Z,98675.94
2022-12-28T06:09:43.896Z,98672.47
2022-12-28T06:12:11.596Z,98666.19
2022-12-28T06:14:39.403Z,98668.63
2022-12-28T06:17:07.093Z,98670.50
2022-12-28T06:19:34.835Z,98672.72
2022-12-28T06:22:02.815Z,98665.06
2022-12-28T06:24:31.897Z,98658.06
2022-12-28T06:26:59.544Z,98658.06
2022-12-28T06:29:27.234Z,98660.88
2022-12-28T06:31:56.564Z,98659.19
2022-12-28T06:34:24.419Z,98654.84
2022-12-28T06:36:52.553Z,98666.13
2022-12-28T06:39:20.315Z,98666.59
2022-12-28T06:41:49.431Z,98659.03
2022-12-28T06:44:17.199Z,98662.75
2022-12-28T06:46:44.939Z,98650.34
2022-12-28T06:49:12.738Z,98653.84
2022-12-28T06:51:41.991Z,98644.75
2022-12-28T06:54:10.688Z,98640.69
2022-12-28T06:56:38.819Z,98637.38
2022-12-28T06:59:08.256Z,98634.75
2022-12-28T07:01:38.515Z,98633.13
2022-12-28T07:04:10.387Z,98637.47
2022-12-28T07:06:40.167Z,98634.22
2022-12-28T07:09:10.385Z,98628.53
2022-12-28T07:11:38.421Z,98627.06
2022-12-28T07:14:07.558Z,98618.44
2022-12-28T07:19:02.464Z,98607.56
2022-12-28T07:21:32.727Z,98601.59
2022-12-28T07:24:00.732Z,98604.78
2022-12-28T07:26:30.058Z,98603.03
2022-12-28T07:28:59.419Z,98605.41
2022-12-28T07:31:30.216Z,98593.63
2022-12-28T07:33:59.336Z,98591.53
2022-12-28T07:36:28.432Z,98592.91
2022-12-28T07:38:58.588Z,98587.94
2022-12-28T07:41:28.920Z,98585.88
2022-12-28T07:43:56.782Z,98585.94
2022-12-28T07:46:26.210Z,98587.81
2022-12-28T07:48:56.954Z,98595.63
2022-12-28T07:51:27.101Z,98599.41
2022-12-28T07:53:56.351Z,98588.19
2022-12-28T07:56:25.457Z,98594.00
2022-12-28T07:58:55.155Z,98594.44
2022-12-28T08:01:25.015Z,98600.22
2022-12-28T08:03:56.461Z,98598.16
2022-12-28T08:06:25.652Z,98584.00
2022-12-28T08:08:55.587Z,98589.78
2022-12-28T08:11:25.280Z,98583.81
2022-12-28T08:13:55.169Z,98586.34
2022-12-28T08:16:24.928Z,98580.31
2022-12-28T08:18:52.918Z,98559.97
2022-12-28T08:21:24.380Z,98569.91
2022-12-28T08:23:52.351Z,98565.72
2022-12-28T08:26:21.850Z,98572.28
2022-12-28T08:28:51.868Z,98575.72
2022-12-28T08:31:21.195Z,98572.38
2022-12-28T08:33:49.551Z,98572.22
2022-12-28T08:36:17.889Z,98573.72
2022-12-28T08:38:47.487Z,98574.66
2022-12-28T08:41:17.891Z,98580.22
2022-12-28T08:43:46.619Z,98573.66
2022-12-28T08:46:17.418Z,98572.03
2022-12-28T08:48:46.499Z,98566.72
2022-12-28T08:51:17.044Z,98569.72
2022-12-28T08:53:45.180Z,98562.00
2022-12-28T08:56:16.237Z,98556.31
2022-12-28T08:58:44.992Z,98549.09
2022-12-28T09:01:14.917Z,98557.41
2022-12-28T09:03:44.867Z,98559.59
2022-12-28T09:06:14.012Z,98553.88
2022-12-28T09:08:42.693Z,98556.91
2022-12-28T09:11:12.865Z,98558.69
2022-12-28T09:13:42.077Z,98558.94
2022-12-28T09:16:11.527Z,98574.13
2022-12-28T09:18:40.578Z,98567.50
2022-12-28T09:21:11.497Z,98556.56
2022-12-28T09:23:39.249Z,98558.59
2022-12-28T09:26:08.742Z,98558.13
2022-12-28T09:28:36.506Z,98554.91
2022-12-28T09:31:07.699Z,98552.06
2022-12-28T09:34:32.039Z,98538.78
2022-12-28T09:36:43.835Z,98541.63
2022-12-28T09:39:13.884Z,98544.75
2022-12-28T09:41:48.202Z,98546.94
2022-12-28T09:44:43.157Z,98546.69
2022-12-28T09:47:24.160Z,98533.66
2022-12-28T09:50:03.591Z,98536.41
2022-12-28T09:52:34.994Z,98537.25
2022-12-28T09:55:10.333Z,98533.03
2022-12-28T09:57:41.242Z,98534.69
2022-12-28T10:00:17.941Z,98528.56
2022-12-28T10:02:50.772Z,98538.81
2022-12-28T10:05:20.509Z,98531.09
2022-12-28T10:07:48.394Z,98534.03
2022-12-28T10:10:20.009Z,98522.88
2022-12-28T10:12:49.618Z,98530.63
2022-12-28T10:15:18.384Z,98522.69
2022-12-28T10:17:47.453Z,98515.97
2022-12-28T10:20:18.062Z,98517.28
2022-12-28T10:22:50.346Z,98515.44
2022-12-28T10:25:20.371Z,98509.13
2022-12-28T10:27:48.369Z,98515.00
2022-12-28T10:30:18.593Z,98503.91
2022-12-28T10:32:56.677Z,98492.38
2022-12-28T10:35:33.198Z,98500.25
2022-12-28T10:38:04.746Z,98494.59
2022-12-28T10:40:34.958Z,98493.94
2022-12-28T10:45:53.045Z,98485.19
2022-12-28T10:48:25.964Z,98474.44
2022-12-28T10:50:56.043Z,98479.56
2022-12-28T10:53:29.903Z,98481.66
2022-12-28T10:56:24.869Z,98473.97
2022-12-28T10:58:53.915Z,98483.34
2022-12-28T11:01:26.846Z,98463.09
2022-12-28T11:03:20.600Z,98487.22
2022-12-28T11:04:09.184Z,98470.59
2022-12-28T11:06:51.330Z,98460.25
2022-12-28T11:09:22.660Z,98443.56
2022-12-28T11:11:54.375Z,98451.75
2022-12-28T11:14:32.779Z,98453.50
2022-12-28T11:17:16.318Z,98449.38
2022-12-28T11:19:45.814Z,98447.13
2022-12-28T11:22:16.721Z,98441.38
2022-12-28T11:24:45.567Z,98439.28
2022-12-28T11:27:17.334Z,98434.94
2022-12-28T11:29:47.878Z,98437.91
2022-12-28T11:32:22.514Z,98433.50
2022-12-28T11:34:53.521Z,98424.78
2022-12-28T11:37:21.211Z,98423.16
2022-12-28T11:39:50.506Z,98412.06
2022-12-28T11:42:51.333Z,98414.56
2022-12-28T11:45:51.424Z,98409.22
2022-12-28T11:48:49.631Z,98401.53
2022-12-28T11:51:19.725Z,98399.53
2022-12-28T11:53:57.604Z,98395.72
2022-12-28T11:56:27.655Z,98387.25
2022-12-28T11:59:07.299Z,98390.06
2022-12-28T12:01:53.642Z,98389.28
2022-12-28T12:04:41.742Z,98379.84
2022-12-28T12:07:56.874Z,98372.00
2022-12-28T12:10:36.057Z,98363.91
2022-12-28T12:13:30.204Z,98351.34
2022-12-28T12:16:04.027Z,98346.19
2022-12-28T12:18:39.516Z,98343.28
2022-12-28T12:21:15.566Z,98346.78
2022-12-28T12:23:49.408Z,98336.53
2022-12-28T12:26:28.605Z,98336.06
2022-12-28T12:29:01.684Z,98325.72
2022-12-28T12:31:32.513Z,98330.44
2022-12-28T12:34:13.323Z,98325.72
2022-12-28T12:37:14.217Z,98327.09
2022-12-28T12:40:04.646Z,98331.09
2022-12-28T12:42:45.555Z,98317.50
2022-12-28T12:45:22.932Z,98319.03
2022-12-28T12:48:18.687Z,98316.41
2022-12-28T12:51:11.906Z,98316.13
2022-12-28T12:53:58.970Z,98313.47
2022-12-28T12:56:38.432Z,98315.16
2022-12-28T12:59:34.494Z,98307.75
2022-12-28T13:02:19.819Z,98308.78
2022-12-28T13:04:48.239Z,98308.19
2022-12-28T13:07:20.985Z,98302.09
2022-12-28T13:09:53.209Z,98303.28
2022-12-28T13:12:21.896Z,98293.19
2022-12-28T13:14:56.175Z,98297.69
2022-12-28T13:17:25.628Z,98286.91
2022-12-28T13:20:08.926Z,98288.69
2022-12-28T13:22:36.603Z,98286.53
2022-12-28T13:25:06.244Z,98284.03
2022-12-28T13:27:36.509Z,98269.16
2022-12-28T13:30:05.215Z,98269.28
2022-12-28T13:32:38.623Z,98262.53
2022-12-28T13:35:18.760Z,98271.69
2022-12-28T13:38:00.112Z,98256.94
2022-12-28T13:40:30.437Z,98261.88
2022-12-28T13:43:17.550Z,98262.38
2022-12-28T13:45:50.965Z,98271.41
2022-12-28T13:48:18.936Z,98280.63
2022-12-28T13:50:46.805Z,98261.03
2022-12-28T13:53:20.573Z,98264.03
2022-12-28T13:55:52.619Z,98258.41
2022-12-28T13:58:24.313Z,98254.50
2022-12-28T14:00:54.633Z,98250.94
2022-12-28T14:03:22.843Z,98251.06
2022-12-28T14:05:54.983Z,98249.91
2022-12-28T14:08:23.550Z,98253.59
2022-12-28T14:10:52.960Z,98240.75
2022-12-28T14:13:21.542Z,98238.09
2022-12-28T14:15:50.094Z,98245.53
2022-12-28T14:18:19.466Z,98245.25
2022-12-28T14:20:49.150Z,98248.97
2022-12-28T14:23:20.479Z,98251.34
2022-12-28T14:25:48.488Z,98246.06
2022-12-28T14:28:22.774Z,98251.25
2022-12-28T14:30:54.625Z,98251.72
2022-12-28T14:33:25.382Z,98253.31
2022-12-28T14:35:57.445Z,98248.31
2022-12-28T14:38:30.993Z,98248.03
2022-12-28T14:41:01.142Z,98253.31
2022-12-28T14:43:32.979Z,98248.63
2022-12-28T14:46:16.171Z,98252.19
2022-12-28T14:48:45.507Z,98257.19
2022-12-28T14:51:28.661Z,98256.03
2022-12-28T14:54:17.359Z,98251.34
2022-12-28T14:56:47.528Z,98251.06
2022-12-28T14:59:22.677Z,98251.91
2022-12-28T15:01:50.425Z,98243.94
2022-12-28T15:04:34.695Z,98241.88
2022-12-28T15:07:02.804Z,98243.47
2022-12-28T15:09:30.548Z,98237.22
2022-12-28T15:12:12.705Z,98243.22
2022-12-28T15:14:42.165Z,98241.31
2022-12-28T15:17:11.224Z,98235.22
2022-12-28T15:19:39.206Z,98236.84
2022-12-28T15:22:06.977Z,98234.03
2022-12-28T15:24:35.097Z,98234.69
2022-12-28T15:27:03.100Z,98222.50
2022-12-28T15:32:20.205Z,98215.28
2022-12-28T15:34:47.935Z,98208.53
2022-12-28T15:37:15.723Z,98199.91
2022-12-28T15:39:43.397Z,98205.19
2022-12-28T15:42:11.098Z,98195.13
2022-12-28T15:44:38.852Z,98195.41
2022-12-28T15:47:06.923Z,98197.38
2022-12-28T15:49:35.984Z,98198.31
2022-12-28T15:52:03.636Z,98186.22
2022-12-28T15:54:31.320Z,98194.03
2022-12-28T15:56:59.095Z,98197.28
2022-12-28T15:59:27.646Z,98191.47
2022-12-28T16:01:55.424Z,98197.94
2022-12-28T16:04:23.251Z,98189.63
2022-12-28T16:06:52.265Z,98187.53
2022-12-28T16:09:20.047Z,98189.13
2022-12-28T16:11:54.700Z,98179.56
2022-12-28T16:14:23.055Z,98177.97
2022-12-28T16:16:51.320Z,98173.19
2022-12-28T16:19:19.126Z,98182.09
2022-12-28T16:21:47.269Z,98179.56
2022-12-28T16:24:16.252Z,98183.13
2022-12-28T16:26:44.700Z,98186.59
2022-12-28T16:29:12.635Z,98185.38
2022-12-28T16:31:41.292Z,98185.38
2022-12-28T16:34:12.186Z,98181.66
2022-12-28T16:36:40.266Z,98198.75
2022-12-28T16:39:12.917Z,98187.75
2022-12-28T16:41:41.954Z,98189.47
2022-12-28T16:44:14.852Z,98188.56
2022-12-28T16:46:42.921Z,98180.09
2022-12-28T16:49:11.908Z,98183.13
2022-12-28T16:51:40.565Z,98184.72
2022-12-28T16:54:08.804Z,98173.84
2022-12-28T16:56:36.913Z,98175.94
2022-12-28T16:59:05.933Z,98171.56
2022-12-28T17:01:33.703Z,98164.28
2022-12-28T17:04:04.071Z,98168.94
2022-12-28T17:06:32.369Z,98162.53
2022-12-28T17:09:01.710Z,98167.53
2022-12-28T17:11:29.910Z,98163.41
2022-12-28T17:14:01.561Z,98164.88
2022-12-28T17:16:30.651Z,98155.44
2022-12-28T17:18:58.736Z,98167.09
2022-12-28T17:21:26.724Z,98174.00
2022-12-28T17:23:54.536Z,98160.44
2022-12-28T17:26:22.295Z,98164.41
2022-12-28T17:28:50.071Z,98175.28
2022-12-28T17:31:21.263Z,98166.66
2022-12-28T17:33:53.704Z,98165.22
2022-12-28T17:36:22.304Z,98162.81
2022-12-28T17:38:50.104Z,98159.16
2022-12-28T17:41:20.696Z,98154.19
2022-12-28T17:43:49.135Z,98159.94
2022-12-28T17:46:17.157Z,98163.78
2022-12-28T17:48:45.100Z,98160.44
2022-12-28T17:51:14.210Z,98152.78
2022-12-28T17:53:42.367Z,98141.47
2022-12-28T17:56:13.214Z,98142.84
2022-12-28T17:58:41.629Z,98136.97
2022-12-28T18:01:10.042Z,98145.09
2022-12-28T18:03:38.781Z,98128.69
2022-12-28T18:06:07.314Z,98133.19
2022-12-28T18:08:38.708Z,98126.03
2022-12-28T18:11:08.596Z,98123.63
2022-12-28T18:13:36.334Z,98125.88
2022-12-28T18:16:06.142Z,98123.00
2022-12-28T18:18:34.424Z,98119.31
2022-12-28T18:21:04.263Z,98106.88
2022-12-28T18:23:32.462Z,98114.25
2022-12-28T18:26:06.006Z,98103.88
2022-12-28T18:28:35.407Z,98102.28
2022-12-28T18:31:05.291Z,98102.94
2022-12-28T18:33:34.244Z,98100.41
2022-12-28T18:36:03.658Z,98082.06
2022-12-28T18:38:31.678Z,98074.88
2022-12-28T18:41:00.140Z,98088.75
2022-12-28T18:43:29.236Z,98076.63
2022-12-28T18:45:58.867Z,98085.72
2022-12-28T18:48:27.983Z,98077.31
2022-12-28T18:50:56.553Z,98066.75
2022-12-28T18:53:25.611Z,98076.81
2022-12-28T18:55:58.445Z,98067.53
2022-12-28T18:58:26.461Z,98071.09
2022-12-28T19:00:55.573Z,98069.50
2022-12-28T19:03:23.372Z,98081.94
2022-12-28T19:06:02.291Z,98075.72
2022-12-28T19:08:31.258Z,98073.47
2022-12-28T19:10:58.931Z,98065.97
2022-12-28T19:13:26.720Z,98067.09
2022-12-28T19:15:55.780Z,98061.81
2022-12-28T19:18:23.431Z,98066.13
2022-12-28T19:20:55.839Z,98058.97
2022-12-28T19:23:23.585Z,98049.72
2022-12-28T19:25:51.313Z,98047.63
2022-12-28T19:28:19.023Z,98045.09
2022-12-28T19:30:46.878Z,98050.84
2022-12-28T19:33:15.990Z,98042.41
2022-12-28T19:35:43.632Z,98046.53
2022-12-28T19:38:11.378Z,98040.81
2022-12-28T19:40:39.112Z,98033.94
2022-12-28T19:43:07.036Z,98018.47
2022-12-28T19:45:34.769Z,98020.25
2022-12-28T19:48:02.493Z,98023.25
2022-12-28T19:50:31.502Z,98015.78
2022-12-28T19:52:59.255Z,98008.28
2022-12-28T19:55:26.918Z,98006.22
2022-12-28T19:57:54.606Z,98004.44
2022-12-28T20:00:22.458Z,98012.09
2022-12-28T20:02:50.265Z,97999.03
2022-12-28T20:05:18.117Z,98004.44
2022-12-28T20:07:47.113Z,98000.31
2022-12-28T20:10:14.916Z,97998.41
2022-12-28T20:12:42.615Z,97997.44
2022-12-28T20:15:10.815Z,98007.31
2022-12-28T20:17:38.467Z,98003.00
2022-12-28T20:20:07.301Z,97989.13
2022-12-28T20:22:35.081Z,97988.34
2022-12-28T20:25:04.362Z,97981.19
2022-12-28T20:27:32.153Z,97981.84
2022-12-28T20:29:59.922Z,97962.56
2022-12-28T20:32:27.674Z,97972.75
2022-12-28T20:34:55.606Z,97959.53
2022-12-28T20:37:23.400Z,97960.16
2022-12-28T20:39:51.132Z,97971.16
2022-12-28T20:42:37.722Z,97967.47
2022-12-28T20:45:06.200Z,97968.59
2022-12-28T20:47:34.048Z,97952.69
2022-12-28T20:50:03.892Z,97947.09
2022-12-28T20:52:33.782Z,97956.50
2022-12-28T20:55:02.038Z,97959.81
2022-12-28T20:57:31.292Z,97952.16
2022-12-28T21:00:00.343Z,97948.34
2022-12-28T21:02:30.204Z,97951.06
2022-12-28T21:04:58.013Z,97942.59
2022-12-28T21:07:26.195Z,97934.31
2022-12-28T21:09:54.025Z,97937.19
2022-12-28T21:12:21.816Z,97941.69
2022-12-28T21:14:50.991Z,97925.72
2022-12-28T21:17:18.894Z,97925.22
2022-12-28T21:19:47.772Z,97926.03
2022-12-28T21:22:15.605Z,97913.59
2022-12-28T21:24:43.488Z,97913.44
2022-12-28T21:27:11.315Z,97910.56
2022-12-28T21:29:39.547Z,97907.69
2022-12-28T21:32:09.432Z,97911.03
2022-12-28T21:34:37.353Z,97905.31
2022-12-28T21:37:22.146Z,97896.69
2022-12-28T21:39:50.236Z,97910.88
2022-12-28T21:42:17.948Z,97907.06
2022-12-28T21:44:45.905Z,97895.41
2022-12-28T21:47:15.154Z,97908.94
2022-12-28T21:49:44.549Z,97904.31
2022-12-28T21:52:12.401Z,97893.13
2022-12-28T21:54:40.539Z,97898.25
2022-12-28T21:57:15.204Z,97880.41
2022-12-28T21:59:43.863Z,97886.00
2022-12-28T22:02:46.393Z,97887.28
2022-12-28T22:05:32.309Z,97881.69
2022-12-28T22:08:13.951Z,97880.69
2022-12-28T22:10:59.209Z,97881.16
2022-12-28T22:13:27.038Z,97883.38
2022-12-28T22:15:57.976Z,97872.00
2022-12-28T22:19:00.436Z,97858.91
2022-12-28T22:21:14.809Z,97856.19
2022-12-28T22:23:42.584Z,97859.84
2022-12-28T22:26:10.290Z,97853.63
2022-12-28T22:28:37.970Z,97844.78
2022-12-28T22:31:06.503Z,97847.06
2022-12-28T22:33:35.768Z,97847.06
2022-12-28T22:36:10.286Z,97849.31
2022-12-28T22:38:37.983Z,97842.84
2022-12-28T22:41:05.838Z,97847.84
2022-12-28T22:43:33.570Z,97842.94
2022-12-28T22:46:03.340Z,97841.09
2022-12-28T22:48:31.407Z,97843.22
2022-12-28T22:51:04.155Z,97839.38
2022-12-28T22:53:32.085Z,97829.09
2022-12-28T22:56:00.314Z,97827.22
2022-12-28T22:58:28.828Z,97830.69
2022-12-28T23:01:04.960Z,97820.19
2022-12-28T23:03:32.791Z,97828.63
2022-12-28T23:06:00.511Z,97821.84
2022-12-28T23:08:29.550Z,97821.41
2022-12-28T23:10:59.335Z,97825.50
2022-12-28T23:13:27.995Z,97828.03
2022-12-28T23:15:55.863Z,97822.59
2022-12-28T23:18:41.170Z,97824.19
2022-12-28T23:21:34.174Z,97818.13
2022-12-28T23:24:20.901Z,97817.72
2022-12-28T23:27:06.297Z,97809.75
2022-12-28T23:29:33.978Z,97810.81
2022-12-28T23:32:01.662Z,97809.22
2022-12-28T23:34:29.370Z,97806.19
2022-12-28T23:36:57.191Z,97804.19
2022-12-28T23:39:26.301Z,97814.19
2022-12-28T23:41:54.892Z,97807.44
2022-12-28T23:44:24.335Z,97809.22
2022-12-28T23:46:58.558Z,97806.97
2022-12-28T23:49:26.487Z,97804.50
2022-12-28T23:51:54.524Z,97799.53
2022-12-28T23:54:22.421Z,97799.53
2022-12-28T23:56:51.462Z,97801.13
2022-12-28T23:59:19.117Z,97800.72
